Capitol Logistics 309


PGUM
Guam International Airport
Guam, GU
RJAA
Tokyo-Narita International Airport
Tokyo, JP

Route Details

Aircraft Information
Primary: Boeing 767-300BDSF
Backup: Not Available
Route Data
Distance: 849nm
Sched. Duration: 3h 45m
Avg. Duration: 3h 37m (-7m)
Times Flown: 3
Recm'd Route: UNZ TERYY G205 TEGOD A337 DAGDA G223 ADKAK Y819 CATCH Y815 KETAR Y811 VEPOX Y811 MELON
Planned Altitude: 35,000ft
Origin Wx: PGUM 290954Z 07008KT 10SM CLR 28/22 A2996 RMK AO2 SLP137 T02830222
Dest. Wx: RJAA 291000Z 14003KT 9999 FEW020 FEW030CB 20/17 Q1015 NOSIG
Notes:

Financial History
Total Freight: 259,765lbs
Average Load: 86,588lbs/flt
Fuel Used: 112,706lbs
Avg. Fuel Used: 37,569lbs/flt
Fuel Expense: $90,165
Avg. Fuel Expense: $30,055
Avg. Fuel Cost: $0.80/lbs
Total Gross Income: $427,236
Pilot Pay: $687
Total Expenses: $46,297
Total Revenue: $288,028
Average Revenue: $142,411.96